Time;durP1;ratioP1;P1;durP2;ratioP2;P2;SDS_P1;SDS_P2;PMS_P1;PMS_P2;Temp;Humidity;BMP_temperature;BMP_pressure;BME280_temperature;BME280_humidity;BME280_pressure;Samples;Min_cycle;Max_cycle;Signal;HPM_P1;HPM_P2
2022/02/21 00:02:08;;;;;;;9.45;1.10;;;;;;;;;;4971993;28;20055;-69
2022/02/21 00:04:34;;;;;;;8.00;1.20;;;;;;;;;;4959258;28;20133;-69
2022/02/21 00:07:01;;;;;;;7.80;1.05;;;;;;;;;;4960907;28;20051;-68
2022/02/21 00:09:28;;;;;;;10.15;1.48;;;;;;;;;;4963275;28;20061;-68
2022/02/21 00:11:54;;;;;;;10.50;1.65;;;;;;;;;;4969965;28;20050;-68
2022/02/21 00:14:20;;;;;;;8.65;1.95;;;;;;;;;;4966894;28;20409;-69
2022/02/21 00:16:47;;;;;;;8.30;1.15;;;;;;;;;;4966113;28;20057;-70
2022/02/21 00:19:13;;;;;;;12.82;1.83;;;;;;;;;;4967243;28;20392;-68
2022/02/21 00:21:40;;;;;;;12.82;1.65;;;;;;;;;;4955270;28;20508;-68
2022/02/21 00:24:06;;;;;;;15.05;1.63;;;;;;;;;;4977281;28;20057;-68
2022/02/21 00:26:32;;;;;;;11.02;1.63;;;;;;;;;;4963216;28;20055;-68
2022/02/21 00:29:00;;;;;;;16.92;2.30;;;;;;;;;;4974249;28;20557;-68
2022/02/21 00:31:26;;;;;;;9.02;1.38;;;;;;;;;;4966688;28;20058;-68
2022/02/21 00:33:54;;;;;;;10.07;1.90;;;;;;;;;;4970097;28;20062;-68
2022/02/21 00:36:20;;;;;;;9.63;1.75;;;;;;;;;;4969376;28;20051;-69
2022/02/21 00:38:46;;;;;;;12.07;1.80;;;;;;;;;;4965975;28;20050;-69
2022/02/21 00:41:13;;;;;;;10.10;1.63;;;;;;;;;;4970961;28;20053;-68
2022/02/21 00:43:39;;;;;;;8.88;1.60;;;;;;;;;;4970897;28;20061;-68
2022/02/21 00:46:05;;;;;;;10.13;1.60;;;;;;;;;;4964691;28;20058;-69
2022/02/21 00:48:32;;;;;;;10.70;1.45;;;;;;;;;;4964112;28;20567;-69
2022/02/21 00:50:58;;;;;;;11.77;2.28;;;;;;;;;;4970035;28;20228;-69
2022/02/21 00:53:24;;;;;;;9.80;1.48;;;;;;;;;;4977888;28;20054;-70
2022/02/21 00:55:50;;;;;;;11.52;1.77;;;;;;;;;;4963845;28;20061;-70
2022/02/21 00:58:17;;;;;;;18.13;2.45;;;;;;;;;;4979010;28;20057;-69
2022/02/21 01:00:43;;;;;;;13.15;1.70;;;;;;;;;;4961335;28;20492;-69
2022/02/21 01:03:10;;;;;;;12.23;3.60;;;;;;;;;;4978523;28;20057;-68
2022/02/21 01:05:40;;;;;;;13.95;2.03;;;;;;;;;;4982102;28;20053;-68
2022/02/21 01:08:08;;;;;;;15.25;2.17;;;;;;;;;;4976488;28;20043;-68
2022/02/21 01:10:35;;;;;;;11.90;1.90;;;;;;;;;;4979586;28;20050;-68
2022/02/21 01:13:01;;;;;;;14.70;2.22;;;;;;;;;;4967092;28;20046;-68
2022/02/21 01:15:28;;;;;;;14.35;1.83;;;;;;;;;;4972696;28;20054;-68
2022/02/21 01:17:54;;;;;;;19.73;2.38;;;;;;;;;;4954608;28;20050;-69
2022/02/21 01:20:20;;;;;;;14.45;2.13;;;;;;;;;;4978077;28;20511;-69
2022/02/21 01:22:47;;;;;;;10.38;1.88;;;;;;;;;;4963933;28;20050;-69
2022/02/21 01:25:13;;;;;;;10.65;2.13;;;;;;;;;;4973304;28;20448;-69
2022/02/21 01:27:39;;;;;;;15.45;2.13;;;;;;;;;;4968529;28;20434;-68
2022/02/21 01:30:07;;;;;;;13.10;1.95;;;;;;;;;;4962514;28;20276;-68
2022/02/21 01:32:34;;;;;;;17.10;1.90;;;;;;;;;;4980974;28;20042;-68
2022/02/21 01:35:00;;;;;;;10.10;1.40;;;;;;;;;;4971259;28;20296;-68
2022/02/21 01:37:27;;;;;;;12.13;2.05;;;;;;;;;;4983348;28;20104;-68
2022/02/21 01:39:53;;;;;;;11.85;2.00;;;;;;;;;;4987210;28;20061;-68
2022/02/21 01:42:19;;;;;;;13.80;2.00;;;;;;;;;;4969393;28;20721;-69
2022/02/21 01:44:46;;;;;;;10.75;1.42;;;;;;;;;;4980380;28;20165;-68
2022/02/21 01:47:14;;;;;;;10.25;2.13;;;;;;;;;;4975684;28;20042;-69
2022/02/21 01:49:40;;;;;;;7.07;1.33;;;;;;;;;;4973704;28;20055;-69
2022/02/21 01:52:07;;;;;;;8.20;1.67;;;;;;;;;;4974919;28;20054;-69
2022/02/21 01:54:33;;;;;;;11.60;1.33;;;;;;;;;;4986158;28;20062;-68
2022/02/21 01:56:59;;;;;;;7.85;1.15;;;;;;;;;;4977780;28;20057;-68
2022/02/21 01:59:26;;;;;;;9.05;1.67;;;;;;;;;;4965910;28;20077;-68
2022/02/21 02:01:52;;;;;;;11.35;1.40;;;;;;;;;;4982340;28;20057;-68
2022/02/21 02:04:19;;;;;;;14.65;2.22;;;;;;;;;;4969596;28;20054;-69
2022/02/21 02:06:47;;;;;;;10.52;1.55;;;;;;;;;;4977829;28;20280;-69
2022/02/21 02:09:13;;;;;;;10.63;1.70;;;;;;;;;;4965660;28;20054;-68
2022/02/21 02:11:41;;;;;;;13.15;2.38;;;;;;;;;;4971570;28;20065;-68
2022/02/21 02:14:07;;;;;;;12.05;1.48;;;;;;;;;;4971432;28;20065;-68
2022/02/21 02:16:33;;;;;;;14.60;1.70;;;;;;;;;;4982149;28;20447;-68
2022/02/21 02:19:00;;;;;;;12.18;2.55;;;;;;;;;;4980045;28;20051;-68
2022/02/21 02:21:27;;;;;;;9.38;2.05;;;;;;;;;;4975577;28;20084;-69
2022/02/21 02:23:54;;;;;;;7.85;2.15;;;;;;;;;;4979382;28;20047;-68
2022/02/21 02:26:21;;;;;;;11.68;1.73;;;;;;;;;;4964050;28;20446;-68
2022/02/21 02:28:50;;;;;;;13.77;1.67;;;;;;;;;;4980367;28;20146;-69
2022/02/21 02:31:16;;;;;;;12.80;2.58;;;;;;;;;;4978032;28;20523;-68
2022/02/21 02:33:42;;;;;;;16.08;2.08;;;;;;;;;;4978702;28;20492;-68
2022/02/21 02:36:09;;;;;;;10.95;1.63;;;;;;;;;;4985777;28;20053;-69
2022/02/21 02:38:36;;;;;;;10.48;1.73;;;;;;;;;;4965906;28;20066;-69
2022/02/21 02:41:06;;;;;;;10.27;1.75;;;;;;;;;;4973705;28;20042;-69
2022/02/21 02:43:32;;;;;;;11.27;2.40;;;;;;;;;;4975667;28;20054;-68
2022/02/21 02:45:59;;;;;;;14.70;2.10;;;;;;;;;;4981657;28;20049;-68
2022/02/21 02:48:25;;;;;;;6.05;1.48;;;;;;;;;;4981374;28;20061;-68
2022/02/21 02:50:51;;;;;;;10.63;1.60;;;;;;;;;;4974278;28;20047;-68
2022/02/21 02:53:18;;;;;;;13.20;1.90;;;;;;;;;;4979418;28;20038;-68
2022/02/21 02:55:44;;;;;;;12.80;1.52;;;;;;;;;;4972021;28;20404;-68
2022/02/21 02:58:10;;;;;;;12.48;1.50;;;;;;;;;;4984874;28;20416;-68
2022/02/21 03:00:36;;;;;;;17.67;2.03;;;;;;;;;;4974632;28;20050;-68
2022/02/21 03:03:03;;;;;;;11.60;1.73;;;;;;;;;;4974836;28;20066;-68
2022/02/21 03:05:30;;;;;;;11.57;1.88;;;;;;;;;;4974563;28;20061;-68
2022/02/21 03:07:57;;;;;;;12.55;1.88;;;;;;;;;;4958799;28;20054;-68
2022/02/21 03:10:23;;;;;;;16.23;2.50;;;;;;;;;;4983787;28;20089;-68
2022/02/21 03:12:49;;;;;;;16.25;2.22;;;;;;;;;;4961619;28;20046;-68
2022/02/21 03:15:16;;;;;;;9.80;1.67;;;;;;;;;;4983955;28;20050;-68
2022/02/21 03:17:42;;;;;;;14.80;1.92;;;;;;;;;;4974853;28;20061;-68
2022/02/21 03:20:08;;;;;;;10.13;1.60;;;;;;;;;;4975296;28;20050;-68
2022/02/21 03:22:35;;;;;;;11.75;1.95;;;;;;;;;;4976410;28;20590;-68
2022/02/21 03:25:01;;;;;;;13.40;2.35;;;;;;;;;;4974541;28;20073;-68
2022/02/21 03:27:27;;;;;;;12.68;1.75;;;;;;;;;;4983767;28;20062;-68
2022/02/21 03:29:55;;;;;;;9.52;2.28;;;;;;;;;;4975072;28;20133;-68
2022/02/21 03:32:22;;;;;;;9.50;1.70;;;;;;;;;;4978946;28;20065;-68
2022/02/21 03:34:49;;;;;;;7.70;1.63;;;;;;;;;;4969201;28;20061;-68
2022/02/21 03:37:15;;;;;;;8.98;1.58;;;;;;;;;;4978628;28;20514;-68
2022/02/21 03:39:42;;;;;;;12.38;1.45;;;;;;;;;;4983956;28;20054;-68
2022/02/21 03:42:08;;;;;;;6.68;1.75;;;;;;;;;;4972050;28;20499;-68
2022/02/21 03:44:34;;;;;;;11.20;2.20;;;;;;;;;;4975042;28;20054;-67
2022/02/21 03:47:01;;;;;;;14.80;2.17;;;;;;;;;;4967993;28;20149;-68
2022/02/21 03:49:27;;;;;;;10.63;1.70;;;;;;;;;;4960732;28;20062;-68
2022/02/21 03:51:53;;;;;;;11.57;1.95;;;;;;;;;;4976873;28;20058;-67
2022/02/21 03:54:20;;;;;;;14.10;1.83;;;;;;;;;;4970538;28;20375;-68
2022/02/21 03:56:46;;;;;;;12.50;1.75;;;;;;;;;;4982272;28;20050;-68
2022/02/21 03:59:12;;;;;;;9.18;1.60;;;;;;;;;;4975375;28;20426;-68
2022/02/21 04:01:38;;;;;;;12.30;2.60;;;;;;;;;;4983524;28;20495;-68
2022/02/21 04:04:05;;;;;;;12.65;1.83;;;;;;;;;;4970868;28;20159;-68
2022/02/21 04:06:31;;;;;;;13.50;1.70;;;;;;;;;;4976009;28;20567;-68
2022/02/21 04:08:57;;;;;;;15.18;2.17;;;;;;;;;;4970556;28;20047;-68
2022/02/21 04:11:24;;;;;;;10.32;2.08;;;;;;;;;;4975009;28;20586;-68
2022/02/21 04:13:50;;;;;;;12.55;1.67;;;;;;;;;;4976710;28;20504;-68
2022/02/21 04:16:16;;;;;;;10.43;2.00;;;;;;;;;;4981745;28;20050;-68
2022/02/21 04:18:43;;;;;;;12.50;2.15;;;;;;;;;;4982277;28;20049;-68
2022/02/21 04:21:09;;;;;;;11.40;1.63;;;;;;;;;;4970579;28;20722;-68
2022/02/21 04:23:36;;;;;;;16.33;2.55;;;;;;;;;;4981951;28;20042;-68
2022/02/21 04:26:02;;;;;;;11.43;1.67;;;;;;;;;;4999927;28;20527;-68
2022/02/21 04:28:28;;;;;;;8.52;1.90;;;;;;;;;;4970158;28;20051;-68
2022/02/21 04:30:54;;;;;;;12.90;2.15;;;;;;;;;;4977608;28;20492;-68
2022/02/21 04:33:21;;;;;;;9.70;1.73;;;;;;;;;;4974712;28;20042;-68
2022/02/21 04:35:47;;;;;;;14.55;2.60;;;;;;;;;;4975268;28;20470;-68
2022/02/21 04:38:14;;;;;;;14.80;2.58;;;;;;;;;;4968578;28;20050;-68
2022/02/21 04:40:40;;;;;;;13.68;1.88;;;;;;;;;;4972642;28;20051;-68
2022/02/21 04:43:06;;;;;;;14.93;2.15;;;;;;;;;;4976340;28;20046;-68
2022/02/21 04:45:33;;;;;;;10.30;1.77;;;;;;;;;;4968636;28;20055;-68
2022/02/21 04:47:59;;;;;;;12.00;2.10;;;;;;;;;;4988652;28;20046;-69
2022/02/21 04:50:26;;;;;;;13.85;2.22;;;;;;;;;;4972004;28;20047;-68
2022/02/21 04:52:52;;;;;;;12.23;1.92;;;;;;;;;;4979643;28;20061;-68
2022/02/21 04:55:19;;;;;;;8.88;1.42;;;;;;;;;;4967821;28;20054;-68
2022/02/21 04:57:46;;;;;;;12.98;2.08;;;;;;;;;;4974265;28;20378;-69
2022/02/21 05:00:13;;;;;;;9.85;1.75;;;;;;;;;;4981289;28;20046;-69
2022/02/21 05:02:39;;;;;;;9.50;1.50;;;;;;;;;;4967930;28;20077;-68
2022/02/21 05:05:10;;;;;;;11.13;1.77;;;;;;;;;;4982627;28;20530;-68
2022/02/21 05:07:37;;;;;;;8.02;1.65;;;;;;;;;;4965010;28;20050;-68
2022/02/21 05:10:04;;;;;;;11.23;2.08;;;;;;;;;;4980171;28;20415;-68
2022/02/21 05:12:31;;;;;;;8.82;1.33;;;;;;;;;;4966117;28;20054;-68
2022/02/21 05:14:57;;;;;;;10.75;2.20;;;;;;;;;;4982768;28;20054;-68
2022/02/21 05:17:23;;;;;;;9.82;1.60;;;;;;;;;;4976476;28;20164;-68
2022/02/21 05:19:49;;;;;;;19.02;2.08;;;;;;;;;;4983216;28;20073;-68
2022/02/21 05:22:16;;;;;;;9.23;2.35;;;;;;;;;;4979837;28;20395;-69
2022/02/21 05:24:42;;;;;;;12.80;2.03;;;;;;;;;;4971350;28;20050;-68
2022/02/21 05:27:09;;;;;;;11.43;1.58;;;;;;;;;;4977563;28;20053;-69
2022/02/21 05:29:35;;;;;;;7.25;1.40;;;;;;;;;;4976962;28;20085;-68
2022/02/21 05:32:01;;;;;;;17.50;2.38;;;;;;;;;;4983486;28;20050;-69
2022/02/21 05:34:27;;;;;;;10.95;1.95;;;;;;;;;;4984735;28;20062;-69
2022/02/21 05:36:54;;;;;;;7.30;1.83;;;;;;;;;;4975319;28;20065;-69
2022/02/21 05:39:20;;;;;;;8.10;1.80;;;;;;;;;;4979242;28;20062;-69
2022/02/21 05:41:47;;;;;;;15.38;2.40;;;;;;;;;;4977004;28;20050;-69
2022/02/21 05:44:13;;;;;;;8.77;1.80;;;;;;;;;;4985940;28;20371;-70
2022/02/21 05:46:40;;;;;;;10.85;1.70;;;;;;;;;;4976469;28;20137;-69
2022/02/21 05:49:08;;;;;;;11.18;1.90;;;;;;;;;;4981846;28;20563;-69
2022/02/21 05:51:34;;;;;;;8.65;1.45;;;;;;;;;;4973113;28;20097;-69
2022/02/21 05:54:00;;;;;;;13.27;1.80;;;;;;;;;;4962352;28;20060;-69
2022/02/21 05:56:27;;;;;;;11.60;1.92;;;;;;;;;;4984572;28;20050;-69
2022/02/21 05:58:53;;;;;;;11.90;1.55;;;;;;;;;;4976707;28;20046;-69
2022/02/21 06:01:20;;;;;;;10.63;1.52;;;;;;;;;;4976753;28;20043;-69
2022/02/21 06:03:46;;;;;;;14.60;2.08;;;;;;;;;;4968843;28;20501;-70
2022/02/21 06:06:12;;;;;;;12.05;1.73;;;;;;;;;;4968311;28;20061;-69
2022/02/21 06:08:38;;;;;;;13.10;2.00;;;;;;;;;;4978745;28;20053;-69
2022/02/21 06:11:05;;;;;;;8.45;1.50;;;;;;;;;;4976055;28;20047;-69
2022/02/21 06:13:31;;;;;;;12.82;2.45;;;;;;;;;;4981503;28;20054;-69
2022/02/21 06:15:58;;;;;;;12.43;2.38;;;;;;;;;;4979057;28;20046;-69
2022/02/21 06:18:24;;;;;;;12.68;1.80;;;;;;;;;;4979440;28;20057;-69
2022/02/21 06:20:51;;;;;;;11.73;1.85;;;;;;;;;;4960993;28;21029;-69
2022/02/21 06:23:17;;;;;;;9.45;2.30;;;;;;;;;;4981603;28;20046;-69
2022/02/21 06:25:43;;;;;;;12.15;1.98;;;;;;;;;;4980218;28;20046;-70
2022/02/21 06:28:10;;;;;;;13.23;1.70;;;;;;;;;;4974935;28;20046;-69
2022/02/21 06:30:36;;;;;;;13.98;1.67;;;;;;;;;;4979002;28;20558;-69
2022/02/21 06:33:03;;;;;;;14.75;2.30;;;;;;;;;;4970935;28;20154;-69
2022/02/21 06:35:30;;;;;;;12.90;1.60;;;;;;;;;;4984031;28;20058;-69
2022/02/21 06:37:59;;;;;;;17.17;2.30;;;;;;;;;;4977010;28;20054;-69
2022/02/21 06:40:28;;;;;;;12.20;1.92;;;;;;;;;;4978731;28;20487;-69
2022/02/21 06:42:55;;;;;;;13.90;1.63;;;;;;;;;;4971895;28;20412;-69
2022/02/21 06:45:22;;;;;;;10.30;1.52;;;;;;;;;;4964113;28;20341;-69
2022/02/21 06:47:50;;;;;;;;;;;;;;;;;;4970351;28;20397;-69
2022/02/21 06:50:17;;;;;;;11.18;2.05;;;;;;;;;;4974699;28;19926;-69
2022/02/21 06:52:44;;;;;;;13.13;1.85;;;;;;;;;;4983963;28;20054;-69
2022/02/21 06:55:12;;;;;;;11.57;2.30;;;;;;;;;;4976473;28;20053;-69
2022/02/21 06:57:48;;;;;;;18.85;2.78;;;;;;;;;;4978860;28;20137;-69
2022/02/21 07:00:16;;;;;;;9.93;1.83;;;;;;;;;;4975397;28;20481;-70
2022/02/21 07:02:43;;;;;;;12.20;1.80;;;;;;;;;;4975802;28;20112;-69
2022/02/21 07:05:10;;;;;;;10.52;1.60;;;;;;;;;;4983600;28;20389;-69
2022/02/21 07:07:37;;;;;;;16.73;2.45;;;;;;;;;;4969867;28;20069;-69
2022/02/21 07:10:04;;;;;;;11.20;2.10;;;;;;;;;;4976519;28;20050;-69
2022/02/21 07:12:30;;;;;;;14.07;2.33;;;;;;;;;;4965460;28;20057;-69
2022/02/21 07:14:56;;;;;;;8.43;1.45;;;;;;;;;;4996136;28;20057;-69
2022/02/21 07:17:23;;;;;;;11.63;2.08;;;;;;;;;;4986863;28;20475;-69
2022/02/21 07:19:51;;;;;;;8.55;1.60;;;;;;;;;;4974285;28;20053;-69
2022/02/21 07:22:17;;;;;;;11.35;2.03;;;;;;;;;;4979191;28;20046;-70
2022/02/21 07:24:43;;;;;;;14.27;1.58;;;;;;;;;;4967960;28;20054;-69
2022/02/21 07:27:10;;;;;;;12.55;2.50;;;;;;;;;;4975896;28;20061;-70
2022/02/21 07:29:36;;;;;;;16.00;2.00;;;;;;;;;;4981572;28;20224;-69
2022/02/21 07:32:06;;;;;;;10.50;2.60;;;;;;;;;;4981966;28;20055;-69
2022/02/21 07:34:33;;;;;;;22.10;2.67;;;;;;;;;;4983339;28;20398;-69
2022/02/21 07:36:59;;;;;;;19.73;2.25;;;;;;;;;;4972630;28;20061;-69
2022/02/21 07:39:30;;;;;;;16.60;2.28;;;;;;;;;;4978605;28;20046;-69
2022/02/21 07:41:57;;;;;;;10.60;1.77;;;;;;;;;;4969920;28;20530;-69
2022/02/21 07:44:24;;;;;;;15.35;2.38;;;;;;;;;;4982934;28;20057;-69
2022/02/21 07:46:50;;;;;;;12.43;2.13;;;;;;;;;;4973806;28;20074;-69
2022/02/21 07:49:17;;;;;;;8.73;1.70;;;;;;;;;;4976119;28;20054;-69
2022/02/21 07:51:43;;;;;;;13.50;2.47;;;;;;;;;;4976000;28;20054;-70
2022/02/21 07:54:10;;;;;;;11.77;2.00;;;;;;;;;;4973247;28;20050;-69
2022/02/21 07:56:56;;;;;;;11.15;2.08;;;;;;;;;;4982166;28;20560;-69
2022/02/21 07:59:24;;;;;;;12.02;1.73;;;;;;;;;;4976842;28;20058;-69
2022/02/21 08:01:50;;;;;;;14.48;2.17;;;;;;;;;;4985305;28;20498;-69
2022/02/21 08:04:16;;;;;;;12.90;2.50;;;;;;;;;;4977197;28;20054;-69
2022/02/21 08:06:43;;;;;;;13.00;2.35;;;;;;;;;;4984648;28;20061;-69
2022/02/21 08:09:09;;;;;;;16.95;2.45;;;;;;;;;;4971359;28;20047;-69
2022/02/21 08:11:36;;;;;;;10.70;1.83;;;;;;;;;;4984262;28;20058;-69
2022/02/21 08:14:03;;;;;;;9.40;1.98;;;;;;;;;;4988796;28;20054;-69
2022/02/21 08:16:29;;;;;;;12.45;1.77;;;;;;;;;;4972765;28;20066;-69
2022/02/21 08:18:56;;;;;;;10.27;1.65;;;;;;;;;;4982348;28;20050;-69
2022/02/21 08:21:24;;;;;;;8.70;2.10;;;;;;;;;;4972592;28;20042;-69
2022/02/21 08:23:50;;;;;;;10.88;2.03;;;;;;;;;;4976494;28;20304;-70
2022/02/21 08:26:16;;;;;;;10.02;2.10;;;;;;;;;;4976190;28;20057;-69
2022/02/21 08:28:43;;;;;;;10.93;1.60;;;;;;;;;;4982499;28;20082;-69
2022/02/21 08:31:09;;;;;;;12.57;2.40;;;;;;;;;;4983368;28;20046;-69
2022/02/21 08:33:35;;;;;;;13.07;2.08;;;;;;;;;;4971851;28;20595;-69
2022/02/21 08:36:02;;;;;;;11.68;1.98;;;;;;;;;;4981197;28;20043;-69
2022/02/21 08:38:28;;;;;;;11.35;2.08;;;;;;;;;;4969199;28;20081;-69
2022/02/21 08:40:55;;;;;;;9.35;1.55;;;;;;;;;;4984888;28;20053;-69
2022/02/21 08:43:28;;;;;;;;;;;;;;;;;;4971024;28;20473;-69
2022/02/21 08:45:55;;;;;;;10.93;1.83;;;;;;;;;;4982389;28;20298;-69
2022/02/21 08:48:41;;;;;;;11.13;1.92;;;;;;;;;;4978066;28;20042;-69
2022/02/21 08:51:08;;;;;;;10.25;1.67;;;;;;;;;;4969526;28;20516;-69
2022/02/21 08:53:34;;;;;;;12.18;2.08;;;;;;;;;;4982549;28;20073;-70
2022/02/21 08:56:00;;;;;;;9.88;1.88;;;;;;;;;;4986810;28;20065;-69
2022/02/21 08:58:27;;;;;;;7.65;1.73;;;;;;;;;;4984541;28;20061;-69
2022/02/21 09:00:53;;;;;;;14.75;2.20;;;;;;;;;;4981436;28;20080;-70
2022/02/21 09:03:20;;;;;;;10.95;1.85;;;;;;;;;;4983603;28;20102;-69
2022/02/21 09:05:47;;;;;;;9.18;1.48;;;;;;;;;;5002222;28;20105;-69
2022/02/21 09:08:15;;;;;;;15.75;2.42;;;;;;;;;;4981384;28;20049;-69
2022/02/21 09:10:42;;;;;;;7.10;1.35;;;;;;;;;;4989542;28;20053;-69
2022/02/21 09:13:08;;;;;;;16.88;2.53;;;;;;;;;;4981016;28;20053;-70
2022/02/21 09:15:34;;;;;;;16.40;2.28;;;;;;;;;;4991196;28;20042;-70
2022/02/21 09:18:02;;;;;;;10.27;1.70;;;;;;;;;;4983917;28;20056;-70
2022/02/21 09:20:29;;;;;;;9.15;1.60;;;;;;;;;;4985218;28;20047;-70
2022/02/21 09:22:55;;;;;;;13.82;2.08;;;;;;;;;;4987622;28;20479;-69
2022/02/21 09:25:22;;;;;;;13.90;2.00;;;;;;;;;;4977120;28;20645;-69
2022/02/21 09:27:48;;;;;;;18.23;2.17;;;;;;;;;;4987440;28;20074;-70
2022/02/21 09:30:15;;;;;;;14.18;2.88;;;;;;;;;;4976211;28;20046;-69
2022/02/21 09:32:41;;;;;;;9.52;1.95;;;;;;;;;;4985281;28;20062;-68
2022/02/21 09:35:08;;;;;;;10.57;2.40;;;;;;;;;;4981748;28;20057;-69
2022/02/21 09:37:36;;;;;;;17.80;1.70;;;;;;;;;;4986243;28;20423;-68
2022/02/21 09:40:05;;;;;;;16.07;2.10;;;;;;;;;;4985088;28;20129;-69
2022/02/21 09:42:32;;;;;;;10.05;2.08;;;;;;;;;;4981792;28;20314;-68
2022/02/21 09:44:59;;;;;;;8.15;1.63;;;;;;;;;;4979615;28;20080;-68
2022/02/21 09:47:26;;;;;;;10.13;1.80;;;;;;;;;;4977089;28;20050;-68
2022/02/21 09:49:53;;;;;;;11.00;1.63;;;;;;;;;;4991613;28;20050;-68
2022/02/21 09:52:19;;;;;;;10.00;1.98;;;;;;;;;;4973334;28;20061;-68
2022/02/21 09:54:46;;;;;;;11.63;1.45;;;;;;;;;;4986545;28;20046;-67
2022/02/21 09:57:15;;;;;;;8.55;1.65;;;;;;;;;;4978341;28;20046;-68
2022/02/21 09:59:41;;;;;;;7.07;1.70;;;;;;;;;;4975468;28;20046;-68
2022/02/21 10:02:14;;;;;;;7.57;1.92;;;;;;;;;;4984137;28;20057;-68
2022/02/21 10:04:40;;;;;;;7.47;1.92;;;;;;;;;;4993299;28;20500;-68
2022/02/21 10:07:06;;;;;;;7.65;1.85;;;;;;;;;;4984250;28;20049;-68
2022/02/21 10:09:36;;;;;;;16.60;1.88;;;;;;;;;;4980210;28;20444;-68
2022/02/21 10:12:03;;;;;;;15.55;2.28;;;;;;;;;;4979029;28;20077;-68
2022/02/21 10:14:30;;;;;;;11.43;2.38;;;;;;;;;;4981948;28;20850;-68
2022/02/21 10:16:58;;;;;;;12.95;2.20;;;;;;;;;;4985884;28;20049;-68
2022/02/21 10:19:38;;;;;;;12.25;2.65;;;;;;;;;;4998372;28;20050;-68
2022/02/21 10:22:11;;;;;;;15.07;2.60;;;;;;;;;;4978500;28;20424;-68
2022/02/21 10:24:40;;;;;;;9.40;2.28;;;;;;;;;;4980132;28;20046;-68
2022/02/21 10:27:09;;;;;;;12.00;2.55;;;;;;;;;;4973012;28;20061;-68
2022/02/21 10:29:36;;;;;;;17.58;2.97;;;;;;;;;;4984284;28;20054;-68
2022/02/21 10:32:06;;;;;;;13.93;2.75;;;;;;;;;;4973276;28;20047;-68
2022/02/21 10:34:33;;;;;;;13.48;2.42;;;;;;;;;;4983567;28;20065;-69
2022/02/21 10:37:00;;;;;;;16.70;2.78;;;;;;;;;;4985740;28;20047;-70
2022/02/21 10:39:26;;;;;;;11.50;2.50;;;;;;;;;;4972342;28;20053;-69
2022/02/21 10:41:53;;;;;;;12.45;2.53;;;;;;;;;;4986709;28;20054;-69
2022/02/21 10:44:25;;;;;;;11.50;2.03;;;;;;;;;;4981539;28;20042;-69
2022/02/21 10:47:04;;;;;;;9.50;2.40;;;;;;;;;;4982878;28;20137;-69
2022/02/21 10:49:51;;;;;;;13.15;2.15;;;;;;;;;;4980320;28;20552;-68
2022/02/21 10:52:18;;;;;;;10.23;2.00;;;;;;;;;;4979000;28;20141;-69
2022/02/21 10:54:45;;;;;;;12.52;2.05;;;;;;;;;;4977091;28;20050;-69
2022/02/21 10:57:12;;;;;;;6.65;1.55;;;;;;;;;;4975101;28;20054;-69
2022/02/21 10:59:39;;;;;;;6.03;1.58;;;;;;;;;;4985737;28;20054;-69
2022/02/21 11:02:07;;;;;;;12.93;3.10;;;;;;;;;;4975387;28;20487;-69
2022/02/21 11:04:37;;;;;;;13.65;2.67;;;;;;;;;;4979932;28;20045;-69
2022/02/21 11:07:03;;;;;;;10.50;1.70;;;;;;;;;;4979121;28;20133;-68
2022/02/21 11:09:30;;;;;;;18.25;2.35;;;;;;;;;;4993159;28;20496;-69
2022/02/21 11:11:58;;;;;;;6.28;1.48;;;;;;;;;;4983648;28;20684;-68
2022/02/21 11:14:28;;;;;;;12.23;2.60;;;;;;;;;;4963139;28;20704;-69
2022/02/21 11:16:55;;;;;;;10.35;1.55;;;;;;;;;;4978768;28;20050;-69
2022/02/21 11:19:22;;;;;;;9.73;1.40;;;;;;;;;;4978701;28;20042;-69
2022/02/21 11:21:49;;;;;;;9.60;2.28;;;;;;;;;;4985564;28;20060;-69
2022/02/21 11:24:17;;;;;;;13.85;2.05;;;;;;;;;;4977569;28;20648;-69
2022/02/21 11:27:02;;;;;;;9.75;2.10;;;;;;;;;;4984735;28;20416;-69
2022/02/21 11:29:35;;;;;;;6.10;1.55;;;;;;;;;;4970710;28;20058;-69
2022/02/21 11:32:01;;;;;;;13.02;2.38;;;;;;;;;;4980773;28;20053;-69
2022/02/21 11:34:28;;;;;;;12.63;2.00;;;;;;;;;;4986448;28;20057;-69
2022/02/21 11:36:57;;;;;;;15.73;1.92;;;;;;;;;;4987176;28;20073;-69
2022/02/21 11:39:29;;;;;;;9.60;1.65;;;;;;;;;;4984519;28;20046;-69
2022/02/21 11:42:19;;;;;;;12.50;2.20;;;;;;;;;;4973659;28;20054;-69
2022/02/21 11:44:47;;;;;;;15.20;2.70;;;;;;;;;;4983287;28;20096;-69
2022/02/21 11:47:32;;;;;;;19.00;3.28;;;;;;;;;;4975918;28;20072;-69
2022/02/21 11:49:58;;;;;;;14.85;2.20;;;;;;;;;;4984344;28;20049;-69
2022/02/21 11:52:32;;;;;;;23.33;3.47;;;;;;;;;;4976985;28;21981;-69
2022/02/21 11:54:58;;;;;;;19.45;3.45;;;;;;;;;;4978810;28;20057;-69
2022/02/21 11:57:35;;;;;;;15.23;3.00;;;;;;;;;;4983864;28;20050;-69
2022/02/21 12:00:20;;;;;;;15.45;2.42;;;;;;;;;;4973259;28;20050;-68
2022/02/21 12:03:06;;;;;;;17.73;3.10;;;;;;;;;;4982949;28;20050;-69
2022/02/21 12:05:32;;;;;;;22.00;3.03;;;;;;;;;;4974303;28;20507;-69
2022/02/21 12:08:19;;;;;;;21.27;3.42;;;;;;;;;;4974326;28;20049;-69
2022/02/21 12:11:10;;;;;;;28.67;3.53;;;;;;;;;;4971289;28;21122;-69
2022/02/21 12:13:37;;;;;;;25.55;3.35;;;;;;;;;;4967823;28;20705;-69
2022/02/21 12:16:04;;;;;;;27.02;3.67;;;;;;;;;;4974722;28;20530;-69
2022/02/21 12:18:30;;;;;;;24.00;4.32;;;;;;;;;;4982513;28;20050;-69
2022/02/21 12:21:09;;;;;;;27.92;4.00;;;;;;;;;;4975565;28;20058;-69
2022/02/21 12:23:58;;;;;;;24.20;4.03;;;;;;;;;;4983522;28;20412;-69
2022/02/21 12:26:35;;;;;;;25.88;4.25;;;;;;;;;;4965002;28;20335;-69
2022/02/21 12:29:19;;;;;;;29.33;3.60;;;;;;;;;;4984016;28;20504;-69
2022/02/21 12:31:54;;;;;;;18.90;3.05;;;;;;;;;;4989424;28;20084;-69
2022/02/21 12:34:22;;;;;;;23.23;4.65;;;;;;;;;;4981979;28;20423;-70
2022/02/21 12:36:50;;;;;;;24.45;4.32;;;;;;;;;;4986537;28;20419;-69
2022/02/21 12:39:23;;;;;;;31.27;5.18;;;;;;;;;;4975627;28;20417;-69
2022/02/21 12:41:50;;;;;;;22.08;3.45;;;;;;;;;;4981274;28;20069;-69
2022/02/21 12:44:17;;;;;;;28.17;4.00;;;;;;;;;;4986661;28;20453;-70
2022/02/21 12:46:46;;;;;;;25.70;3.63;;;;;;;;;;4986431;28;20054;-69
2022/02/21 12:49:25;;;;;;;29.90;4.45;;;;;;;;;;4986838;28;20050;-69
2022/02/21 12:51:51;;;;;;;;;;;;;;;;;;4988930;28;20046;-69
2022/02/21 12:54:17;;;;;;;22.30;3.13;;;;;;;;;;4985124;28;19926;-69
2022/02/21 12:56:45;;;;;;;26.77;3.72;;;;;;;;;;4977085;28;20050;-70
2022/02/21 12:59:12;;;;;;;16.77;3.03;;;;;;;;;;4989052;28;20050;-70
2022/02/21 13:01:38;;;;;;;21.63;3.05;;;;;;;;;;4978948;28;20521;-70
2022/02/21 13:04:06;;;;;;;23.80;3.03;;;;;;;;;;4986007;28;20054;-69
2022/02/21 13:06:33;;;;;;;17.00;2.90;;;;;;;;;;4977887;28;20056;-69
2022/02/21 13:08:59;;;;;;;16.48;2.08;;;;;;;;;;4982909;28;20050;-69
2022/02/21 13:11:29;;;;;;;15.27;2.40;;;;;;;;;;4989257;28;20054;-69
2022/02/21 13:14:19;;;;;;;15.35;3.03;;;;;;;;;;4977955;28;20046;-70
2022/02/21 13:16:53;;;;;;;16.27;2.22;;;;;;;;;;4984073;28;20057;-70
2022/02/21 13:19:46;;;;;;;16.85;2.40;;;;;;;;;;4975234;28;20376;-70
2022/02/21 13:22:17;;;;;;;19.38;2.45;;;;;;;;;;4980522;28;20058;-70
2022/02/21 13:24:47;;;;;;;17.73;2.97;;;;;;;;;;4978640;28;20061;-70
2022/02/21 13:27:21;;;;;;;13.95;2.40;;;;;;;;;;4986342;28;20507;-69
2022/02/21 13:29:48;;;;;;;15.55;2.53;;;;;;;;;;4979376;28;20058;-69
2022/02/21 13:32:29;;;;;;;17.92;2.70;;;;;;;;;;4986359;28;20563;-69
2022/02/21 13:35:07;;;;;;;19.42;2.53;;;;;;;;;;4993025;28;20050;-70
2022/02/21 13:37:33;;;;;;;10.68;2.17;;;;;;;;;;4985688;28;20057;-70
2022/02/21 13:40:20;;;;;;;13.85;1.85;;;;;;;;;;4989942;28;20141;-70
2022/02/21 13:42:52;;;;;;;14.25;2.58;;;;;;;;;;4975464;28;20057;-70
2022/02/21 13:45:19;;;;;;;12.70;2.42;;;;;;;;;;4977356;28;20053;-69
2022/02/21 13:48:07;;;;;;;18.38;2.45;;;;;;;;;;4984439;28;20061;-70
2022/02/21 13:50:41;;;;;;;15.35;1.90;;;;;;;;;;4986547;28;20419;-70
2022/02/21 13:53:28;;;;;;;12.10;1.95;;;;;;;;;;4979499;28;20054;-69
2022/02/21 13:55:55;;;;;;;12.48;1.95;;;;;;;;;;4984908;28;20042;-70
2022/02/21 13:58:26;;;;;;;17.65;2.55;;;;;;;;;;4979074;28;20479;-71
2022/02/21 14:00:52;;;;;;;13.48;2.80;;;;;;;;;;4993183;28;20444;-70
2022/02/21 14:03:18;;;;;;;12.93;1.90;;;;;;;;;;4982270;28;20046;-70
2022/02/21 14:06:06;;;;;;;14.00;1.85;;;;;;;;;;4978184;28;20046;-70
2022/02/21 14:08:35;;;;;;;13.75;1.73;;;;;;;;;;4979403;28;20050;-70
2022/02/21 14:11:14;;;;;;;14.35;2.13;;;;;;;;;;4978064;28;20136;-70
2022/02/21 14:13:41;;;;;;;20.73;2.40;;;;;;;;;;4984804;28;20054;-70
2022/02/21 14:16:08;;;;;;;15.20;2.33;;;;;;;;;;4970722;28;20050;-70
2022/02/21 14:18:35;;;;;;;13.45;2.25;;;;;;;;;;4982468;28;20068;-70
2022/02/21 14:21:02;;;;;;;11.30;2.05;;;;;;;;;;4975813;28;20518;-70
2022/02/21 14:23:29;;;;;;;11.65;1.63;;;;;;;;;;4982801;28;20062;-70
2022/02/21 14:25:55;;;;;;;20.63;2.13;;;;;;;;;;4983865;28;20065;-70
2022/02/21 14:28:22;;;;;;;11.23;1.92;;;;;;;;;;4972753;28;20042;-70
2022/02/21 14:30:49;;;;;;;13.05;2.08;;;;;;;;;;4979487;28;20051;-70
2022/02/21 14:33:15;;;;;;;14.93;2.50;;;;;;;;;;4974674;28;20053;-70
2022/02/21 14:35:41;;;;;;;10.23;1.55;;;;;;;;;;4984938;28;20054;-70
2022/02/21 14:38:09;;;;;;;10.73;1.50;;;;;;;;;;4976873;28;20398;-69
2022/02/21 14:40:36;;;;;;;11.20;1.90;;;;;;;;;;4983861;28;20503;-69